Royal Prince — WCX8037 — position and weather

sailwx.info

Track history (hours):
 
Tides and Currents Weather Stations Pressure Air Temp Water Temp Dewpoint Dewpoint Depression Visibility Wind Speed Wind Dir Waves Ship Positions

Royal Prince

Owner: Golden Gate Scenic Steamship Corp, SAN FRANCISCO, CA. More information available from US FCC via Universal Licensing System and Coast Guard Vessel Documentation Center.

Last reported at 2015-Jul-03 04:33 UTC. Time now 2015-Jul-03 07:50 UTC.
Position N 37°49' W 122°25'.

Length 28 m; draft 2.3 m.

Type: Passenger vessel. MMSI: 366975760.

Date/timePositionNaut miles runAvg speedWind from/ knotsBaromVisibWave heightAir tempDewpointWater temp
2015-Jul-03 04:33N 37°49' W 122°25'3 2.8
2015-Jul-03 03:33N 37°49' W 122°28'4 3.9
2015-Jul-03 02:33N 37°52' W 122°25'3 3.3
2015-Jul-03 01:33N 37°49' W 122°25'0 0.0
2015-Jul-03 00:33N 37°49' W 122°25'2 1.8
2015-Jul-02 23:33N 37°49' W 122°27'2 2.1
2015-Jul-02 22:33N 37°49' W 122°24'2 2.3
2015-Jul-02 21:33N 37°49' W 122°27'4 3.9
2015-Jul-02 20:33N 37°47' W 122°23'2 2.0
2015-Jul-02 19:33N 37°49' W 122°25'0 0.0
2015-Jul-02 02:33N 37°49' W 122°25'2 2.2
2015-Jul-02 01:33N 37°49' W 122°28'1 1.1
2015-Jul-02 00:33N 37°50' W 122°27'2 1.6
2015-Jul-01 23:33N 37°49' W 122°25'1 0.7
2015-Jul-01 22:33N 37°49' W 122°25'0 0.0
2015-Jul-01 21:33N 37°49' W 122°25'2 2.2
2015-Jul-01 20:33N 37°49' W 122°28'2 2.2
2015-Jul-01 19:33N 37°49' W 122°25'2 1.8
2015-Jul-01 18:34N 37°49' W 122°27'1 0.6
2015-Jul-01 17:33N 37°49' W 122°27'2 0.2
2015-Jul-01 04:12N 37°49' W 122°25'4 5.7
2015-Jul-01 03:33N 37°51' W 122°28'3 2.8
2015-Jul-01 02:33N 37°50' W 122°25'1 1.2
2015-Jul-01 01:33N 37°49' W 122°25'0 0.0
2015-Jul-01 00:33N 37°49' W 122°25'2 1.9
2015-Jun-30 23:33N 37°50' W 122°27'3 2.7
2015-Jun-30 22:33N 37°49' W 122°24'3 2.7
2015-Jun-30 21:33N 37°49' W 122°27'3 2.8
2015-Jun-30 20:34N 37°49' W 122°24'1 0.9
2015-Jun-30 19:33N 37°49' W 122°25'0 0.0
2015-Jun-30 04:10N 37°49' W 122°25'4 5.9
2015-Jun-30 03:33N 37°51' W 122°28'3 2.7
2015-Jun-30 02:34N 37°51' W 122°25'2 2.2
2015-Jun-30 01:34N 37°49' W 122°25'0 0.0
2015-Jun-30 00:33N 37°49' W 122°25'2 1.9
2015-Jun-29 23:34N 37°50' W 122°27'2 2.1
2015-Jun-29 22:33N 37°49' W 122°24'2 2.2
2015-Jun-29 21:33N 37°49' W 122°27'4 3.7
2015-Jun-29 20:34N 37°48' W 122°23'2 1.8
2015-Jun-29 19:33N 37°49' W 122°25'0 0.0
2015-Jun-29 04:09N 37°49' W 122°25'2 3.1
2015-Jun-29 03:33N 37°49' W 122°27'3 3.2
2015-Jun-29 02:33N 37°51' W 122°25'3 2.8
2015-Jun-29 01:33N 37°49' W 122°25'0 0.0
2015-Jun-29 00:33N 37°49' W 122°25'2 2.2
2015-Jun-28 23:33N 37°50' W 122°27'3 2.6
2015-Jun-28 22:33N 37°49' W 122°24'2 2.4
2015-Jun-28 21:33N 37°49' W 122°27'4 3.8
2015-Jun-28 20:33N 37°48' W 122°23'2 2.0
2015-Jun-28 19:33N 37°49' W 122°25'0 0.1
2015-Jun-28 18:33N 37°49' W 122°25'0 0.0
2015-Jun-28 03:33N 37°49' W 122°25'4 3.6
2015-Jun-28 02:33N 37°52' W 122°27'4 3.6
2015-Jun-28 01:33N 37°49' W 122°25'0 0.0
2015-Jun-28 00:33N 37°49' W 122°25'0 0.0
2015-Jun-27 23:33N 37°49' W 122°25'0 0.0
2015-Jun-27 22:33N 37°49' W 122°25'0 0.2
2015-Jun-27 21:33N 37°49' W 122°25'0 0.2
2015-Jun-27 20:33N 37°49' W 122°25'2 1.9
2015-Jun-27 19:33N 37°50' W 122°27'2 1.7
2015-Jun-27 18:33N 37°49' W 122°25'1 0.8
2015-Jun-27 17:33N 37°49' W 122°25'0 0.0
2015-Jun-27 04:33N 37°49' W 122°25'3 3.1
2015-Jun-27 03:33N 37°49' W 122°29'3 3.3
2015-Jun-27 02:33N 37°51' W 122°25'2 2.1
2015-Jun-27 01:33N 37°49' W 122°25'0 0.1
2015-Jun-27 00:33N 37°49' W 122°25'3 2.7
2015-Jun-26 23:33N 37°49' W 122°28'4 3.9
2015-Jun-26 22:33N 37°48' W 122°24'3 2.5
2015-Jun-26 21:33N 37°49' W 122°27'2 2.3
2015-Jun-26 20:33N 37°49' W 122°24'1 1.0
2015-Jun-26 19:33N 37°49' W 122°25'0 0.0
2015-Jun-26 04:33N 37°49' W 122°25'3 3.3
2015-Jun-26 03:33N 37°49' W 122°29'3 3.4
2015-Jun-26 02:33N 37°50' W 122°25'2 1.9
2015-Jun-26 01:33N 37°49' W 122°25'0 0.2
2015-Jun-26 00:33N 37°49' W 122°25'3 2.5
2015-Jun-25 23:33N 37°49' W 122°28'4 4.0
2015-Jun-25 22:33N 37°48' W 122°23'2 2.0
2015-Jun-25 21:33N 37°49' W 122°25'1 1.0
2015-Jun-25 20:33N 37°49' W 122°24'1 0.8
2015-Jun-25 19:33N 37°49' W 122°25'0 0.0
2015-Jun-25 02:33N 37°49' W 122°25'1 0.9
2015-Jun-25 01:33N 37°49' W 122°26'2 1.9
2015-Jun-25 00:33N 37°49' W 122°28'3 2.5
2015-Jun-24 23:33N 37°50' W 122°25'1 1.2
2015-Jun-24 22:33N 37°49' W 122°25'0 0.0
2015-Jun-24 21:33N 37°49' W 122°25'3 2.9
2015-Jun-24 20:33N 37°49' W 122°29'3 2.9
2015-Jun-24 19:33N 37°49' W 122°25'1 1.1
2015-Jun-24 18:33N 37°49' W 122°26'2 2.1
2015-Jun-24 17:33N 37°49' W 122°29'3 3.2
2015-Jun-24 16:33N 37°49' W 122°25'0 0.0
2015-Jun-24 15:33N 37°49' W 122°25'0 0.0
2015-Jun-24 04:31N 37°49' W 122°25'3 3.4
2015-Jun-24 03:33N 37°49' W 122°29'3 3.1
2015-Jun-24 02:33N 37°51' W 122°25'2 2.0
2015-Jun-24 01:33N 37°49' W 122°25'0 0.0
2015-Jun-24 00:33N 37°49' W 122°25'2 2.0
2015-Jun-23 23:33N 37°49' W 122°27'3 2.8
2015-Jun-23 22:33N 37°49' W 122°24'3 2.5
2015-Jun-23 21:33N 37°49' W 122°27'4 3.9
2015-Jun-23 20:33N 37°48' W 122°23'2 2.1
2015-Jun-23 19:33N 37°49' W 122°25'0 0.0
2015-Jun-23 19:05N 37°49' W 122°25'  
Track history (hours):
 
Tides and Currents Weather Stations Pressure Air Temp Water Temp Dewpoint Dewpoint Depression Visibility Wind Speed Wind Dir Waves Ship Positions

Royal Prince

Owner: Golden Gate Scenic Steamship Corp, SAN FRANCISCO, CA. More information available from US FCC via Universal Licensing System and Coast Guard Vessel Documentation Center.

Last reported at 2015-Jul-03 04:33 UTC. Time now 2015-Jul-03 07:50 UTC.
Position N 37°49' W 122°25'.

Length 28 m; draft 2.3 m.

Type: Passenger vessel. MMSI: 366975760.

Date/timePositionNaut miles runAvg speedWind from/ knotsBaromVisibWave heightAir tempDewpointWater temp
2015-Jul-03 04:33N 37°49' W 122°25'3 2.8
2015-Jul-03 03:33N 37°49' W 122°28'4 3.9
2015-Jul-03 02:33N 37°52' W 122°25'3 3.3
2015-Jul-03 01:33N 37°49' W 122°25'0 0.0
2015-Jul-03 00:33N 37°49' W 122°25'2 1.8
2015-Jul-02 23:33N 37°49' W 122°27'2 2.1
2015-Jul-02 22:33N 37°49' W 122°24'2 2.3
2015-Jul-02 21:33N 37°49' W 122°27'4 3.9
2015-Jul-02 20:33N 37°47' W 122°23'2 2.0
2015-Jul-02 19:33N 37°49' W 122°25'0 0.0
2015-Jul-02 02:33N 37°49' W 122°25'2 2.2
2015-Jul-02 01:33N 37°49' W 122°28'1 1.1
2015-Jul-02 00:33N 37°50' W 122°27'2 1.6
2015-Jul-01 23:33N 37°49' W 122°25'1 0.7
2015-Jul-01 22:33N 37°49' W 122°25'0 0.0
2015-Jul-01 21:33N 37°49' W 122°25'2 2.2
2015-Jul-01 20:33N 37°49' W 122°28'2 2.2
2015-Jul-01 19:33N 37°49' W 122°25'2 1.8
2015-Jul-01 18:34N 37°49' W 122°27'1 0.6
2015-Jul-01 17:33N 37°49' W 122°27'2 0.2
2015-Jul-01 04:12N 37°49' W 122°25'4 5.7
2015-Jul-01 03:33N 37°51' W 122°28'3 2.8
2015-Jul-01 02:33N 37°50' W 122°25'1 1.2
2015-Jul-01 01:33N 37°49' W 122°25'0 0.0
2015-Jul-01 00:33N 37°49' W 122°25'2 1.9
2015-Jun-30 23:33N 37°50' W 122°27'3 2.7
2015-Jun-30 22:33N 37°49' W 122°24'3 2.7
2015-Jun-30 21:33N 37°49' W 122°27'3 2.8
2015-Jun-30 20:34N 37°49' W 122°24'1 0.9
2015-Jun-30 19:33N 37°49' W 122°25'0 0.0
2015-Jun-30 04:10N 37°49' W 122°25'4 5.9
2015-Jun-30 03:33N 37°51' W 122°28'3 2.7
2015-Jun-30 02:34N 37°51' W 122°25'2 2.2
2015-Jun-30 01:34N 37°49' W 122°25'0 0.0
2015-Jun-30 00:33N 37°49' W 122°25'2 1.9
2015-Jun-29 23:34N 37°50' W 122°27'2 2.1
2015-Jun-29 22:33N 37°49' W 122°24'2 2.2
2015-Jun-29 21:33N 37°49' W 122°27'4 3.7
2015-Jun-29 20:34N 37°48' W 122°23'2 1.8
2015-Jun-29 19:33N 37°49' W 122°25'0 0.0
2015-Jun-29 04:09N 37°49' W 122°25'2 3.1
2015-Jun-29 03:33N 37°49' W 122°27'3 3.2
2015-Jun-29 02:33N 37°51' W 122°25'3 2.8
2015-Jun-29 01:33N 37°49' W 122°25'0 0.0
2015-Jun-29 00:33N 37°49' W 122°25'2 2.2
2015-Jun-28 23:33N 37°50' W 122°27'3 2.6
2015-Jun-28 22:33N 37°49' W 122°24'2 2.4
2015-Jun-28 21:33N 37°49' W 122°27'4 3.8
2015-Jun-28 20:33N 37°48' W 122°23'2 2.0
2015-Jun-28 19:33N 37°49' W 122°25'0 0.1
2015-Jun-28 18:33N 37°49' W 122°25'0 0.0
2015-Jun-28 03:33N 37°49' W 122°25'4 3.6
2015-Jun-28 02:33N 37°52' W 122°27'4 3.6
2015-Jun-28 01:33N 37°49' W 122°25'0 0.0
2015-Jun-28 00:33N 37°49' W 122°25'0 0.0
2015-Jun-27 23:33N 37°49' W 122°25'0 0.0
2015-Jun-27 22:33N 37°49' W 122°25'0 0.2
2015-Jun-27 21:33N 37°49' W 122°25'0 0.2
2015-Jun-27 20:33N 37°49' W 122°25'2 1.9
2015-Jun-27 19:33N 37°50' W 122°27'2 1.7
2015-Jun-27 18:33N 37°49' W 122°25'1 0.8
2015-Jun-27 17:33N 37°49' W 122°25'0 0.0
2015-Jun-27 04:33N 37°49' W 122°25'3 3.1
2015-Jun-27 03:33N 37°49' W 122°29'3 3.3
2015-Jun-27 02:33N 37°51' W 122°25'2 2.1
2015-Jun-27 01:33N 37°49' W 122°25'0 0.1
2015-Jun-27 00:33N 37°49' W 122°25'3 2.7
2015-Jun-26 23:33N 37°49' W 122°28'4 3.9
2015-Jun-26 22:33N 37°48' W 122°24'3 2.5
2015-Jun-26 21:33N 37°49' W 122°27'2 2.3
2015-Jun-26 20:33N 37°49' W 122°24'1 1.0
2015-Jun-26 19:33N 37°49' W 122°25'0 0.0
2015-Jun-26 04:33N 37°49' W 122°25'3 3.3
2015-Jun-26 03:33N 37°49' W 122°29'3 3.4
2015-Jun-26 02:33N 37°50' W 122°25'2 1.9
2015-Jun-26 01:33N 37°49' W 122°25'0 0.2
2015-Jun-26 00:33N 37°49' W 122°25'3 2.5
2015-Jun-25 23:33N 37°49' W 122°28'4 4.0
2015-Jun-25 22:33N 37°48' W 122°23'2 2.0
2015-Jun-25 21:33N 37°49' W 122°25'1 1.0
2015-Jun-25 20:33N 37°49' W 122°24'1 0.8
2015-Jun-25 19:33N 37°49' W 122°25'0 0.0
2015-Jun-25 02:33N 37°49' W 122°25'1 0.9
2015-Jun-25 01:33N 37°49' W 122°26'2 1.9
2015-Jun-25 00:33N 37°49' W 122°28'3 2.5
2015-Jun-24 23:33N 37°50' W 122°25'1 1.2
2015-Jun-24 22:33N 37°49' W 122°25'0 0.0
2015-Jun-24 21:33N 37°49' W 122°25'3 2.9
2015-Jun-24 20:33N 37°49' W 122°29'3 2.9
2015-Jun-24 19:33N 37°49' W 122°25'1 1.1
2015-Jun-24 18:33N 37°49' W 122°26'2 2.1
2015-Jun-24 17:33N 37°49' W 122°29'3 3.2
2015-Jun-24 16:33N 37°49' W 122°25'0 0.0
2015-Jun-24 15:33N 37°49' W 122°25'0 0.0
2015-Jun-24 04:31N 37°49' W 122°25'3 3.4
2015-Jun-24 03:33N 37°49' W 122°29'3 3.1
2015-Jun-24 02:33N 37°51' W 122°25'2 2.0
2015-Jun-24 01:33N 37°49' W 122°25'0 0.0
2015-Jun-24 00:33N 37°49' W 122°25'2 2.0
2015-Jun-23 23:33N 37°49' W 122°27'3 2.8
2015-Jun-23 22:33N 37°49' W 122°24'3 2.5
2015-Jun-23 21:33N 37°49' W 122°27'4 3.9
2015-Jun-23 20:33N 37°48' W 122°23'2 2.1
2015-Jun-23 19:33N 37°49' W 122°25'0 0.0
2015-Jun-23 19:05N 37°49' W 122°25'  

Dump ship's entire track history